sensor_id;sensor_type;location;lat;lon;timestamp;pressure;altitude;pressure_sealevel;temperature;humidity
43298;BME280;28892;55.640;37.532;2022-12-24T00:02:08;97774.75;;;2.56;77.24
43298;BME280;28892;55.640;37.532;2022-12-24T00:04:34;97785.31;;;2.87;76.76
43298;BME280;28892;55.640;37.532;2022-12-24T00:07:00;97781.84;;;3.03;76.50
43298;BME280;28892;55.640;37.532;2022-12-24T00:09:25;97780.97;;;3.19;75.57
43298;BME280;28892;55.640;37.532;2022-12-24T00:11:51;97781.09;;;3.26;75.38
43298;BME280;28892;55.640;37.532;2022-12-24T00:14:16;97780.44;;;2.84;75.30
43298;BME280;28892;55.640;37.532;2022-12-24T00:16:42;97770.47;;;2.63;77.45
43298;BME280;28892;55.640;37.532;2022-12-24T00:19:08;97763.22;;;2.90;76.82
43298;BME280;28892;55.640;37.532;2022-12-24T00:21:33;97769.50;;;3.12;75.88
43298;BME280;28892;55.640;37.532;2022-12-24T00:23:59;97774.38;;;3.24;75.91
43298;BME280;28892;55.640;37.532;2022-12-24T00:26:24;97779.75;;;3.30;75.00
43298;BME280;28892;55.640;37.532;2022-12-24T00:28:50;97785.69;;;3.24;75.09
43298;BME280;28892;55.640;37.532;2022-12-24T00:31:17;97780.13;;;3.19;75.41
43298;BME280;28892;55.640;37.532;2022-12-24T00:33:44;97784.28;;;3.05;75.40
43298;BME280;28892;55.640;37.532;2022-12-24T00:36:10;97788.19;;;3.17;75.68
43298;BME280;28892;55.640;37.532;2022-12-24T00:38:36;97780.94;;;3.28;75.05
43298;BME280;28892;55.640;37.532;2022-12-24T00:41:04;97784.97;;;3.39;75.15
43298;BME280;28892;55.640;37.532;2022-12-24T00:43:30;97784.22;;;3.21;74.96
43298;BME280;28892;55.640;37.532;2022-12-24T00:45:57;97790.06;;;3.32;74.75
43298;BME280;28892;55.640;37.532;2022-12-24T00:48:23;97794.34;;;3.25;74.72
43298;BME280;28892;55.640;37.532;2022-12-24T00:50:50;97787.09;;;3.35;75.01
43298;BME280;28892;55.640;37.532;2022-12-24T00:53:16;97796.56;;;3.44;74.68
43298;BME280;28892;55.640;37.532;2022-12-24T00:55:42;97783.13;;;3.47;74.62
43298;BME280;28892;55.640;37.532;2022-12-24T00:58:08;97785.53;;;3.57;73.70
43298;BME280;28892;55.640;37.532;2022-12-24T01:00:33;97791.84;;;3.40;74.07
43298;BME280;28892;55.640;37.532;2022-12-24T01:02:59;97784.22;;;3.21;74.21
43298;BME280;28892;55.640;37.532;2022-12-24T01:05:25;97792.28;;;3.20;74.53
43298;BME280;28892;55.640;37.532;2022-12-24T01:07:50;97792.56;;;3.25;74.85
43298;BME280;28892;55.640;37.532;2022-12-24T01:10:18;97796.44;;;3.38;74.69
43298;BME280;28892;55.640;37.532;2022-12-24T01:12:45;97792.66;;;3.40;74.12
43298;BME280;28892;55.640;37.532;2022-12-24T01:15:13;97781.50;;;3.06;74.77
43298;BME280;28892;55.640;37.532;2022-12-24T01:17:39;97781.94;;;3.18;74.83
43298;BME280;28892;55.640;37.532;2022-12-24T01:20:12;97792.56;;;3.25;74.90
43298;BME280;28892;55.640;37.532;2022-12-24T01:22:38;97790.72;;;3.34;74.72
43298;BME280;28892;55.640;37.532;2022-12-24T01:25:04;97779.59;;;3.32;74.48
43298;BME280;28892;55.640;37.532;2022-12-24T01:27:30;97781.34;;;3.40;74.16
43298;BME280;28892;55.640;37.532;2022-12-24T01:29:59;97784.03;;;2.83;74.84
43298;BME280;28892;55.640;37.532;2022-12-24T01:32:25;97782.84;;;2.86;75.75
43298;BME280;28892;55.640;37.532;2022-12-24T01:34:51;97779.56;;;3.00;75.89
43298;BME280;28892;55.640;37.532;2022-12-24T01:37:16;97780.00;;;3.12;75.47
43298;BME280;28892;55.640;37.532;2022-12-24T01:39:42;97784.84;;;3.24;74.71
43298;BME280;28892;55.640;37.532;2022-12-24T01:42:19;97770.88;;;3.40;74.77
43298;BME280;28892;55.640;37.532;2022-12-24T01:47:58;97783.59;;;2.21;77.38
43298;BME280;28892;55.640;37.532;2022-12-24T01:50:23;97789.34;;;2.50;78.04
43298;BME280;28892;55.640;37.532;2022-12-24T01:52:49;97797.31;;;2.65;77.52
43298;BME280;28892;55.640;37.532;2022-12-24T01:55:16;97795.00;;;2.78;76.98
43298;BME280;28892;55.640;37.532;2022-12-24T01:57:52;97796.66;;;2.63;77.24
43298;BME280;28892;55.640;37.532;2022-12-24T02:00:20;97807.16;;;2.13;77.95
43298;BME280;28892;55.640;37.532;2022-12-24T02:02:49;97800.09;;;2.05;79.35
43298;BME280;28892;55.640;37.532;2022-12-24T02:08:11;97809.25;;;2.76;77.64
43298;BME280;28892;55.640;37.532;2022-12-24T02:10:37;97803.44;;;2.97;75.90
43298;BME280;28892;55.640;37.532;2022-12-24T02:13:03;97805.25;;;3.05;75.77
43298;BME280;28892;55.640;37.532;2022-12-24T02:19:10;97806.91;;;3.38;75.41
43298;BME280;28892;55.640;37.532;2022-12-24T02:35:47;97814.16;;;3.67;74.13
43298;BME280;28892;55.640;37.532;2022-12-24T02:40:59;97809.66;;;3.13;74.62
43298;BME280;28892;55.640;37.532;2022-12-24T02:43:32;97799.66;;;3.16;74.93
43298;BME280;28892;55.640;37.532;2022-12-24T02:46:05;97809.19;;;2.92;75.12
43298;BME280;28892;55.640;37.532;2022-12-24T02:48:33;97808.91;;;2.79;75.88
43298;BME280;28892;55.640;37.532;2022-12-24T02:51:08;97798.81;;;2.51;76.81
43298;BME280;28892;55.640;37.532;2022-12-24T02:53:35;97813.81;;;1.91;78.85
43298;BME280;28892;55.640;37.532;2022-12-24T03:04:58;97789.00;;;1.87;80.69
43298;BME280;28892;55.640;37.532;2022-12-24T03:07:34;97787.53;;;2.09;80.01
43298;BME280;28892;55.640;37.532;2022-12-24T03:10:27;97796.19;;;2.09;79.73
43298;BME280;28892;55.640;37.532;2022-12-24T03:12:53;97805.28;;;1.72;80.80
43298;BME280;28892;55.640;37.532;2022-12-24T03:15:23;97810.59;;;2.22;80.45
43298;BME280;28892;55.640;37.532;2022-12-24T03:17:52;97816.16;;;2.52;79.80
43298;BME280;28892;55.640;37.532;2022-12-24T03:20:23;97811.06;;;2.50;78.53
43298;BME280;28892;55.640;37.532;2022-12-24T03:22:49;97804.03;;;2.59;77.82
43298;BME280;28892;55.640;37.532;2022-12-24T03:25:15;97807.47;;;2.76;77.61
43298;BME280;28892;55.640;37.532;2022-12-24T03:27:42;97797.94;;;2.84;77.54
43298;BME280;28892;55.640;37.532;2022-12-24T03:30:12;97799.47;;;2.20;78.01
43298;BME280;28892;55.640;37.532;2022-12-24T03:32:38;97800.88;;;1.64;80.83
43298;BME280;28892;55.640;37.532;2022-12-24T03:35:05;97803.66;;;1.71;80.50
43298;BME280;28892;55.640;37.532;2022-12-24T03:37:31;97795.97;;;1.78;81.35
43298;BME280;28892;55.640;37.532;2022-12-24T03:39:57;97794.03;;;1.72;80.94
43298;BME280;28892;55.640;37.532;2022-12-24T03:42:22;97792.75;;;1.92;80.54
43298;BME280;28892;55.640;37.532;2022-12-24T03:45:24;97798.00;;;2.17;80.80
43298;BME280;28892;55.640;37.532;2022-12-24T03:48:04;97804.53;;;1.97;80.49
43298;BME280;28892;55.640;37.532;2022-12-24T03:50:32;97796.53;;;2.31;79.75
43298;BME280;28892;55.640;37.532;2022-12-24T03:52:58;97803.22;;;2.09;79.40
43298;BME280;28892;55.640;37.532;2022-12-24T03:55:24;97806.00;;;2.16;79.30
43298;BME280;28892;55.640;37.532;2022-12-24T03:57:50;97805.34;;;2.22;79.47
43298;BME280;28892;55.640;37.532;2022-12-24T04:00:16;97800.25;;;1.79;79.80
43298;BME280;28892;55.640;37.532;2022-12-24T04:02:42;97797.81;;;1.86;80.83
43298;BME280;28892;55.640;37.532;2022-12-24T04:05:13;97801.09;;;2.04;80.64
43298;BME280;28892;55.640;37.532;2022-12-24T04:07:39;97810.13;;;1.50;81.56
43298;BME280;28892;55.640;37.532;2022-12-24T04:13:34;97791.63;;;2.12;80.99
43298;BME280;28892;55.640;37.532;2022-12-24T04:17:11;97790.06;;;1.51;82.04
43298;BME280;28892;55.640;37.532;2022-12-24T04:19:37;97786.31;;;1.53;82.10
43298;BME280;28892;55.640;37.532;2022-12-24T04:22:02;97790.22;;;1.58;82.02
43298;BME280;28892;55.640;37.532;2022-12-24T04:24:28;97784.41;;;1.89;81.83
43298;BME280;28892;55.640;37.532;2022-12-24T04:26:53;97774.94;;;1.88;80.96
43298;BME280;28892;55.640;37.532;2022-12-24T04:29:19;97775.59;;;2.06;80.75
43298;BME280;28892;55.640;37.532;2022-12-24T04:31:45;97775.25;;;2.34;79.97
43298;BME280;28892;55.640;37.532;2022-12-24T04:34:10;97771.34;;;2.30;79.20
43298;BME280;28892;55.640;37.532;2022-12-24T04:36:36;97760.56;;;2.00;79.52
43298;BME280;28892;55.640;37.532;2022-12-24T04:39:05;97771.00;;;1.84;79.94
43298;BME280;28892;55.640;37.532;2022-12-24T04:41:31;97775.06;;;1.61;81.60
43298;BME280;28892;55.640;37.532;2022-12-24T04:43:57;97778.28;;;1.55;81.74
43298;BME280;28892;55.640;37.532;2022-12-24T04:46:25;97778.47;;;1.62;81.80
43298;BME280;28892;55.640;37.532;2022-12-24T04:48:53;97773.50;;;1.34;83.21
43298;BME280;28892;55.640;37.532;2022-12-24T04:51:19;97769.00;;;1.52;83.24
43298;BME280;28892;55.640;37.532;2022-12-24T04:53:45;97774.09;;;1.87;82.15
43298;BME280;28892;55.640;37.532;2022-12-24T04:56:13;97785.91;;;2.25;81.22
43298;BME280;28892;55.640;37.532;2022-12-24T04:58:39;97773.13;;;1.88;80.46
43298;BME280;28892;55.640;37.532;2022-12-24T05:01:07;97770.81;;;1.60;81.35
43298;BME280;28892;55.640;37.532;2022-12-24T05:03:33;97764.06;;;1.49;82.40
43298;BME280;28892;55.640;37.532;2022-12-24T05:06:08;97762.34;;;2.00;82.09
43298;BME280;28892;55.640;37.532;2022-12-24T05:08:35;97761.53;;;1.74;80.96
43298;BME280;28892;55.640;37.532;2022-12-24T05:11:01;97759.34;;;1.53;81.72
43298;BME280;28892;55.640;37.532;2022-12-24T05:13:28;97768.25;;;1.25;83.62
43298;BME280;28892;55.640;37.532;2022-12-24T05:15:54;97757.94;;;1.24;83.80
43298;BME280;28892;55.640;37.532;2022-12-24T05:18:20;97752.53;;;1.17;84.46
43298;BME280;28892;55.640;37.532;2022-12-24T05:20:47;97763.91;;;1.51;84.00
43298;BME280;28892;55.640;37.532;2022-12-24T05:23:20;97759.63;;;1.25;83.92
43298;BME280;28892;55.640;37.532;2022-12-24T05:26:14;97756.81;;;1.27;84.33
43298;BME280;28892;55.640;37.532;2022-12-24T05:28:51;97757.94;;;1.24;84.63
43298;BME280;28892;55.640;37.532;2022-12-24T05:31:18;97748.78;;;1.11;85.04
43298;BME280;28892;55.640;37.532;2022-12-24T05:33:44;97756.13;;;1.16;84.71
43298;BME280;28892;55.640;37.532;2022-12-24T05:36:10;97751.28;;;1.30;84.73
43298;BME280;28892;55.640;37.532;2022-12-24T05:38:35;97745.78;;;1.41;83.97
43298;BME280;28892;55.640;37.532;2022-12-24T05:41:01;97746.69;;;1.23;83.94
43298;BME280;28892;55.640;37.532;2022-12-24T05:43:27;97730.72;;;1.35;84.14
43298;BME280;28892;55.640;37.532;2022-12-24T05:46:00;97744.41;;;1.20;83.98
43298;BME280;28892;55.640;37.532;2022-12-24T05:48:26;97763.72;;;1.36;83.87
43298;BME280;28892;55.640;37.532;2022-12-24T05:50:52;97755.34;;;1.24;84.13
43298;BME280;28892;55.640;37.532;2022-12-24T05:53:19;97748.81;;;1.20;84.16
43298;BME280;28892;55.640;37.532;2022-12-24T05:55:45;97750.03;;;1.42;84.26
43298;BME280;28892;55.640;37.532;2022-12-24T05:58:10;97749.34;;;1.32;84.15
43298;BME280;28892;55.640;37.532;2022-12-24T06:00:36;97753.31;;;1.61;83.93
43298;BME280;28892;55.640;37.532;2022-12-24T06:03:02;97750.19;;;1.49;84.07
43298;BME280;28892;55.640;37.532;2022-12-24T06:05:27;97749.41;;;1.81;83.37
43298;BME280;28892;55.640;37.532;2022-12-24T06:07:53;97748.53;;;1.39;83.08
43298;BME280;28892;55.640;37.532;2022-12-24T06:10:19;97738.47;;;1.78;83.64
43298;BME280;28892;55.640;37.532;2022-12-24T06:12:44;97745.53;;;1.86;82.75
43298;BME280;28892;55.640;37.532;2022-12-24T06:15:10;97745.81;;;1.58;83.03
43298;BME280;28892;55.640;37.532;2022-12-24T06:17:36;97743.00;;;1.51;83.40
43298;BME280;28892;55.640;37.532;2022-12-24T06:20:02;97744.97;;;1.49;83.98
43298;BME280;28892;55.640;37.532;2022-12-24T06:22:29;97753.13;;;1.37;83.91
43298;BME280;28892;55.640;37.532;2022-12-24T06:24:54;97753.97;;;1.03;85.17
43298;BME280;28892;55.640;37.532;2022-12-24T06:27:20;97747.69;;;1.22;85.38
43298;BME280;28892;55.640;37.532;2022-12-24T06:29:46;97745.28;;;1.37;85.22
43298;BME280;28892;55.640;37.532;2022-12-24T06:32:11;97751.97;;;1.40;84.35
43298;BME280;28892;55.640;37.532;2022-12-24T06:34:42;97767.78;;;1.30;84.65
43298;BME280;28892;55.640;37.532;2022-12-24T06:37:07;97748.91;;;1.78;84.77
43298;BME280;28892;55.640;37.532;2022-12-24T06:39:44;97747.97;;;2.04;83.53
43298;BME280;28892;55.640;37.532;2022-12-24T06:42:11;97760.03;;;1.63;82.97
43298;BME280;28892;55.640;37.532;2022-12-24T06:44:36;97759.78;;;1.40;83.76
43298;BME280;28892;55.640;37.532;2022-12-24T06:47:02;97744.97;;;1.49;84.38
43298;BME280;28892;55.640;37.532;2022-12-24T06:49:28;97742.19;;;1.42;84.94
43298;BME280;28892;55.640;37.532;2022-12-24T06:51:53;97754.03;;;1.20;84.99
43298;BME280;28892;55.640;37.532;2022-12-24T06:54:19;97730.47;;;1.71;84.80
43298;BME280;28892;55.640;37.532;2022-12-24T06:56:44;97745.50;;;1.69;83.96
43298;BME280;28892;55.640;37.532;2022-12-24T06:59:10;97745.59;;;1.43;84.46
43298;BME280;28892;55.640;37.532;2022-12-24T07:01:35;97744.47;;;1.45;84.21
43298;BME280;28892;55.640;37.532;2022-12-24T07:04:01;97750.81;;;1.34;84.38
43298;BME280;28892;55.640;37.532;2022-12-24T07:06:28;97751.66;;;1.43;84.80
43298;BME280;28892;55.640;37.532;2022-12-24T07:08:54;97742.50;;;1.47;84.49
43298;BME280;28892;55.640;37.532;2022-12-24T07:11:20;97718.31;;;1.37;84.73
43298;BME280;28892;55.640;37.532;2022-12-24T07:13:50;97741.75;;;1.97;84.63
43298;BME280;28892;55.640;37.532;2022-12-24T07:16:16;97734.41;;;2.00;83.23
43298;BME280;28892;55.640;37.532;2022-12-24T07:18:44;97742.91;;;2.02;82.72
43298;BME280;28892;55.640;37.532;2022-12-24T07:21:10;97745.13;;;1.47;83.15
43298;BME280;28892;55.640;37.532;2022-12-24T07:23:35;97720.59;;;1.32;84.27
43298;BME280;28892;55.640;37.532;2022-12-24T07:26:05;97719.97;;;1.46;84.38
43298;BME280;28892;55.640;37.532;2022-12-24T07:28:32;97733.09;;;1.96;83.91
43298;BME280;28892;55.640;37.532;2022-12-24T07:30:58;97742.19;;;1.59;83.32
43298;BME280;28892;55.640;37.532;2022-12-24T07:33:25;97722.13;;;1.59;83.48
43298;BME280;28892;55.640;37.532;2022-12-24T07:36:02;97743.19;;;1.58;83.59
43298;BME280;28892;55.640;37.532;2022-12-24T07:38:29;97733.44;;;1.85;83.34
43298;BME280;28892;55.640;37.532;2022-12-24T07:40:55;97738.78;;;1.66;83.09
43298;BME280;28892;55.640;37.532;2022-12-24T07:43:21;97750.44;;;1.97;82.63
43298;BME280;28892;55.640;37.532;2022-12-24T07:45:47;97739.81;;;1.90;82.23
43298;BME280;28892;55.640;37.532;2022-12-24T07:48:12;97746.50;;;1.76;82.21
43298;BME280;28892;55.640;37.532;2022-12-24T07:50:38;97739.94;;;1.72;82.57
43298;BME280;28892;55.640;37.532;2022-12-24T07:53:03;97749.38;;;1.48;83.26
43298;BME280;28892;55.640;37.532;2022-12-24T07:55:29;97726.19;;;1.62;83.40
43298;BME280;28892;55.640;37.532;2022-12-24T07:57:55;97733.41;;;1.68;83.33
43298;BME280;28892;55.640;37.532;2022-12-24T08:00:20;97736.53;;;2.13;82.84
43298;BME280;28892;55.640;37.532;2022-12-24T08:02:48;97744.88;;;2.17;82.05
43298;BME280;28892;55.640;37.532;2022-12-24T08:05:14;97735.69;;;1.71;81.68
43298;BME280;28892;55.640;37.532;2022-12-24T08:07:40;97740.44;;;1.76;81.75
43298;BME280;28892;55.640;37.532;2022-12-24T08:10:08;97757.22;;;1.57;82.04
43298;BME280;28892;55.640;37.532;2022-12-24T08:12:34;97740.75;;;1.64;82.42
43298;BME280;28892;55.640;37.532;2022-12-24T08:15:00;97747.78;;;1.64;82.43
43298;BME280;28892;55.640;37.532;2022-12-24T08:17:25;97750.03;;;1.59;82.56
43298;BME280;28892;55.640;37.532;2022-12-24T08:19:51;97744.53;;;1.87;82.20
43298;BME280;28892;55.640;37.532;2022-12-24T08:22:16;97750.72;;;1.94;81.47
43298;BME280;28892;55.640;37.532;2022-12-24T08:24:42;97747.63;;;1.74;81.65
43298;BME280;28892;55.640;37.532;2022-12-24T08:27:08;97755.97;;;2.02;81.16
43298;BME280;28892;55.640;37.532;2022-12-24T08:29:33;97738.81;;;1.91;81.22
43298;BME280;28892;55.640;37.532;2022-12-24T08:31:59;97740.28;;;1.77;81.06
43298;BME280;28892;55.640;37.532;2022-12-24T08:34:24;97740.94;;;1.96;81.00
43298;BME280;28892;55.640;37.532;2022-12-24T08:36:50;97741.13;;;2.03;80.49
43298;BME280;28892;55.640;37.532;2022-12-24T08:39:16;97754.66;;;1.90;79.91
43298;BME280;28892;55.640;37.532;2022-12-24T08:41:41;97743.03;;;1.67;80.50
43298;BME280;28892;55.640;37.532;2022-12-24T08:44:07;97726.38;;;1.77;80.58
43298;BME280;28892;55.640;37.532;2022-12-24T08:46:32;97730.97;;;1.83;80.79
43298;BME280;28892;55.640;37.532;2022-12-24T08:48:58;97737.19;;;2.15;80.30
43298;BME280;28892;55.640;37.532;2022-12-24T08:51:23;97726.72;;;1.99;79.35
43298;BME280;28892;55.640;37.532;2022-12-24T08:53:49;97725.72;;;2.00;79.25
43298;BME280;28892;55.640;37.532;2022-12-24T08:56:15;97721.63;;;2.22;79.11
43298;BME280;28892;55.640;37.532;2022-12-24T08:58:41;97716.25;;;1.99;78.84
43298;BME280;28892;55.640;37.532;2022-12-24T09:01:16;97710.03;;;2.00;79.36
43298;BME280;28892;55.640;37.532;2022-12-24T09:03:42;97723.09;;;1.66;79.98
43298;BME280;28892;55.640;37.532;2022-12-24T09:06:08;97718.50;;;1.52;80.76
43298;BME280;28892;55.640;37.532;2022-12-24T09:08:34;97723.59;;;1.78;80.58
43298;BME280;28892;55.640;37.532;2022-12-24T09:11:13;97720.28;;;1.51;80.75
43298;BME280;28892;55.640;37.532;2022-12-24T09:13:39;97715.91;;;1.52;80.84
43298;BME280;28892;55.640;37.532;2022-12-24T09:16:05;97722.63;;;1.63;80.67
43298;BME280;28892;55.640;37.532;2022-12-24T09:18:34;97715.75;;;1.78;80.83
43298;BME280;28892;55.640;37.532;2022-12-24T09:21:02;97724.91;;;2.16;80.26
43298;BME280;28892;55.640;37.532;2022-12-24T09:23:29;97714.91;;;1.53;79.80
43298;BME280;28892;55.640;37.532;2022-12-24T09:25:55;97713.78;;;1.56;80.42
43298;BME280;28892;55.640;37.532;2022-12-24T09:28:21;97720.09;;;1.28;81.00
43298;BME280;28892;55.640;37.532;2022-12-24T09:30:59;97707.53;;;1.32;81.90
43298;BME280;28892;55.640;37.532;2022-12-24T09:33:26;97710.63;;;1.27;81.79
43298;BME280;28892;55.640;37.532;2022-12-24T09:35:52;97703.47;;;1.46;81.77
43298;BME280;28892;55.640;37.532;2022-12-24T09:38:19;97702.50;;;1.55;81.41
43298;BME280;28892;55.640;37.532;2022-12-24T09:40:45;97699.22;;;1.45;81.24
43298;BME280;28892;55.640;37.532;2022-12-24T09:43:19;97704.34;;;1.63;81.08
43298;BME280;28892;55.640;37.532;2022-12-24T09:48:24;97701.69;;;1.46;81.23
43298;BME280;28892;55.640;37.532;2022-12-24T09:51:09;97697.75;;;1.34;81.83
43298;BME280;28892;55.640;37.532;2022-12-24T09:53:41;97696.16;;;1.66;81.33
43298;BME280;28892;55.640;37.532;2022-12-24T09:56:15;97693.84;;;1.46;81.02
43298;BME280;28892;55.640;37.532;2022-12-24T09:58:47;97691.75;;;1.83;81.12
43298;BME280;28892;55.640;37.532;2022-12-24T10:01:15;97705.47;;;1.85;80.02
43298;BME280;28892;55.640;37.532;2022-12-24T10:03:42;97690.91;;;1.41;80.39
43298;BME280;28892;55.640;37.532;2022-12-24T10:06:13;97687.97;;;1.52;81.26
43298;BME280;28892;55.640;37.532;2022-12-24T10:33:30;97685.19;;;1.95;79.13
43298;BME280;28892;55.640;37.532;2022-12-24T10:37:15;97688.97;;;2.09;78.56
43298;BME280;28892;55.640;37.532;2022-12-24T10:39:41;97701.38;;;1.91;78.82
43298;BME280;28892;55.640;37.532;2022-12-24T10:42:08;97689.47;;;1.80;78.81
43298;BME280;28892;55.640;37.532;2022-12-24T10:44:34;97688.31;;;1.91;79.45
43298;BME280;28892;55.640;37.532;2022-12-24T10:46:59;97690.88;;;2.16;78.48
43298;BME280;28892;55.640;37.532;2022-12-24T10:49:32;97710.88;;;2.08;78.08
43298;BME280;28892;55.640;37.532;2022-12-24T10:52:13;97706.56;;;1.49;79.88
43298;BME280;28892;55.640;37.532;2022-12-24T10:55:20;97705.94;;;2.05;80.11
43298;BME280;28892;55.640;37.532;2022-12-24T10:57:57;97700.50;;;2.32;79.16
43298;BME280;28892;55.640;37.532;2022-12-24T11:00:24;97693.00;;;2.37;78.26
43298;BME280;28892;55.640;37.532;2022-12-24T11:05:37;97714.31;;;1.92;79.00
43298;BME280;28892;55.640;37.532;2022-12-24T11:10:40;97714.75;;;1.46;80.70
43298;BME280;28892;55.640;37.532;2022-12-24T11:13:22;97707.91;;;2.12;80.17
43298;BME280;28892;55.640;37.532;2022-12-24T11:16:03;97729.63;;;2.20;79.70
43298;BME280;28892;55.640;37.532;2022-12-24T11:18:44;97721.16;;;2.27;78.85
43298;BME280;28892;55.640;37.532;2022-12-24T11:21:33;97718.81;;;2.57;78.09
43298;BME280;28892;55.640;37.532;2022-12-24T11:26:43;97729.09;;;2.58;76.87
43298;BME280;28892;55.640;37.532;2022-12-24T11:29:14;97722.00;;;2.75;77.62
43298;BME280;28892;55.640;37.532;2022-12-24T11:31:41;97726.97;;;3.02;76.73
43298;BME280;28892;55.640;37.532;2022-12-24T11:34:29;97727.34;;;3.30;76.41
43298;BME280;28892;55.640;37.532;2022-12-24T11:39:43;97730.88;;;3.46;75.39
43298;BME280;28892;55.640;37.532;2022-12-24T11:42:33;97731.84;;;3.68;74.92
43298;BME280;28892;55.640;37.532;2022-12-24T11:45:05;97738.28;;;3.66;74.32
43298;BME280;28892;55.640;37.532;2022-12-24T11:47:37;97748.44;;;3.69;74.26
43298;BME280;28892;55.640;37.532;2022-12-24T11:52:49;97752.72;;;3.61;73.98
43298;BME280;28892;55.640;37.532;2022-12-24T11:55:28;97758.34;;;3.50;73.91
43298;BME280;28892;55.640;37.532;2022-12-24T12:00:38;97757.66;;;2.85;74.52
43298;BME280;28892;55.640;37.532;2022-12-24T12:03:29;97770.53;;;3.03;74.76
43298;BME280;28892;55.640;37.532;2022-12-24T12:05:59;97764.59;;;3.17;74.49
43298;BME280;28892;55.640;37.532;2022-12-24T12:08:27;97770.00;;;3.16;74.60
43298;BME280;28892;55.640;37.532;2022-12-24T12:15:33;97783.44;;;3.53;74.10
43298;BME280;28892;55.640;37.532;2022-12-24T12:18:11;97786.66;;;3.31;73.78
43298;BME280;28892;55.640;37.532;2022-12-24T12:20:45;97785.97;;;3.29;74.06
43298;BME280;28892;55.640;37.532;2022-12-24T12:23:28;97796.09;;;3.41;73.91
43298;BME280;28892;55.640;37.532;2022-12-24T12:26:09;97790.47;;;3.12;74.05
43298;BME280;28892;55.640;37.532;2022-12-24T12:31:19;97803.16;;;3.40;74.22
43298;BME280;28892;55.640;37.532;2022-12-24T12:34:08;97798.88;;;3.47;73.34
43298;BME280;28892;55.640;37.532;2022-12-24T12:36:41;97801.53;;;3.39;73.21
43298;BME280;28892;55.640;37.532;2022-12-24T12:39:09;97801.94;;;3.11;73.39
43298;BME280;28892;55.640;37.532;2022-12-24T12:55:35;97822.06;;;3.59;73.52
43298;BME280;28892;55.640;37.532;2022-12-24T12:58:00;97823.22;;;3.56;72.90
43298;BME280;28892;55.640;37.532;2022-12-24T13:00:30;97829.78;;;3.52;72.89
43298;BME280;28892;55.640;37.532;2022-12-24T13:08:52;97831.94;;;3.80;72.54
43298;BME280;28892;55.640;37.532;2022-12-24T13:22:28;97856.09;;;3.67;72.04
43298;BME280;28892;55.640;37.532;2022-12-24T13:24:55;97858.44;;;3.62;72.01
43298;BME280;28892;55.640;37.532;2022-12-24T13:27:29;97864.44;;;3.71;72.59
43298;BME280;28892;55.640;37.532;2022-12-24T13:30:30;97861.41;;;3.59;72.27
43298;BME280;28892;55.640;37.532;2022-12-24T13:32:52;97864.53;;;3.54;72.02
43298;BME280;28892;55.640;37.532;2022-12-24T13:37:48;97865.81;;;3.58;72.24
43298;BME280;28892;55.640;37.532;2022-12-24T13:40:35;97873.03;;;3.56;72.06
43298;BME280;28892;55.640;37.532;2022-12-24T13:48:00;97891.16;;;3.74;72.06
43298;BME280;28892;55.640;37.532;2022-12-24T13:50:53;97885.88;;;3.83;72.41
43298;BME280;28892;55.640;37.532;2022-12-24T13:58:24;97894.13;;;3.71;71.97
43298;BME280;28892;55.640;37.532;2022-12-24T14:00:56;97899.13;;;3.49;72.06
43298;BME280;28892;55.640;37.532;2022-12-24T14:06:12;97912.06;;;3.51;72.78
43298;BME280;28892;55.640;37.532;2022-12-24T14:08:47;97908.28;;;3.54;72.55
43298;BME280;28892;55.640;37.532;2022-12-24T14:16:27;97921.47;;;3.85;72.35
43298;BME280;28892;55.640;37.532;2022-12-24T14:19:03;97925.53;;;3.88;72.21
43298;BME280;28892;55.640;37.532;2022-12-24T14:21:37;97936.00;;;3.88;71.63
43298;BME280;28892;55.640;37.532;2022-12-24T14:24:14;97939.59;;;3.95;71.96
43298;BME280;28892;55.640;37.532;2022-12-24T14:26:48;97938.34;;;3.83;71.90
43298;BME280;28892;55.640;37.532;2022-12-24T14:29:28;97939.50;;;3.80;71.97
43298;BME280;28892;55.640;37.532;2022-12-24T14:31:58;97943.59;;;3.83;71.40
43298;BME280;28892;55.640;37.532;2022-12-24T14:34:24;97941.47;;;3.78;71.26
43298;BME280;28892;55.640;37.532;2022-12-24T14:36:53;97953.31;;;3.66;72.05
43298;BME280;28892;55.640;37.532;2022-12-24T14:39:34;97944.44;;;3.75;72.25
43298;BME280;28892;55.640;37.532;2022-12-24T14:42:11;97958.50;;;3.82;72.19
43298;BME280;28892;55.640;37.532;2022-12-24T14:45:06;97959.59;;;3.96;72.17
43298;BME280;28892;55.640;37.532;2022-12-24T14:47:43;97964.38;;;3.84;71.36
43298;BME280;28892;55.640;37.532;2022-12-24T14:55:40;97972.75;;;3.88;71.93
43298;BME280;28892;55.640;37.532;2022-12-24T14:58:18;97969.00;;;3.82;72.18
43298;BME280;28892;55.640;37.532;2022-12-24T15:00:45;97973.97;;;3.69;72.10
43298;BME280;28892;55.640;37.532;2022-12-24T15:03:13;97976.44;;;3.70;72.38
43298;BME280;28892;55.640;37.532;2022-12-24T15:05:39;97974.81;;;3.61;72.02
43298;BME280;28892;55.640;37.532;2022-12-24T15:08:13;97983.28;;;3.80;71.95
43298;BME280;28892;55.640;37.532;2022-12-24T15:10:42;97981.66;;;3.70;71.61
43298;BME280;28892;55.640;37.532;2022-12-24T15:15:55;97989.06;;;3.67;71.89
43298;BME280;28892;55.640;37.532;2022-12-24T15:18:27;97993.59;;;3.81;72.06
43298;BME280;28892;55.640;37.532;2022-12-24T15:20:58;97981.66;;;3.70;71.71
43298;BME280;28892;55.640;37.532;2022-12-24T15:23:28;97995.78;;;3.69;71.91
43298;BME280;28892;55.640;37.532;2022-12-24T15:26:15;98006.84;;;3.88;72.43
43298;BME280;28892;55.640;37.532;2022-12-24T15:33:12;98008.91;;;3.44;73.09
43298;BME280;28892;55.640;37.532;2022-12-24T15:38:22;98016.41;;;3.72;73.12
43298;BME280;28892;55.640;37.532;2022-12-24T15:40:49;98009.53;;;3.71;72.66
43298;BME280;28892;55.640;37.532;2022-12-24T15:43:14;98025.56;;;3.76;72.51
43298;BME280;28892;55.640;37.532;2022-12-24T15:45:43;98017.19;;;3.89;72.04
43298;BME280;28892;55.640;37.532;2022-12-24T15:48:11;98022.78;;;3.78;71.56
43298;BME280;28892;55.640;37.532;2022-12-24T15:50:44;98029.16;;;3.84;72.14